METAR Data
IDs: Format: Raw Decoded Include TAF

Data at: 2057 UTC 18 Apr 2021

LRCK 182030Z 28004KT 9999 OVC039 08/05 Q1017 NOSIG